sensor_id;sensor_type;location;lat;lon;timestamp;temperature;humidity
80577;DHT22;69937;52.420;10.538;2023-12-29T00:03:05;9.00;64.00
80577;DHT22;69937;52.420;10.538;2023-12-29T00:08:06;9.00;64.00
80577;DHT22;69937;52.420;10.538;2023-12-29T00:13:06;9.00;64.10
80577;DHT22;69937;52.420;10.538;2023-12-29T00:18:07;9.00;64.30
80577;DHT22;69937;52.420;10.538;2023-12-29T00:23:07;9.00;64.20
80577;DHT22;69937;52.420;10.538;2023-12-29T00:28:08;9.00;64.40
80577;DHT22;69937;52.420;10.538;2023-12-29T00:33:08;9.00;64.40
80577;DHT22;69937;52.420;10.538;2023-12-29T00:38:09;9.00;64.40
80577;DHT22;69937;52.420;10.538;2023-12-29T00:43:09;9.00;64.40
80577;DHT22;69937;52.420;10.538;2023-12-29T00:48:10;9.00;64.70
80577;DHT22;69937;52.420;10.538;2023-12-29T00:53:10;9.00;64.40
80577;DHT22;69937;52.420;10.538;2023-12-29T00:58:11;9.00;64.30
80577;DHT22;69937;52.420;10.538;2023-12-29T01:03:11;9.00;64.50
80577;DHT22;69937;52.420;10.538;2023-12-29T01:08:12;9.00;64.70
80577;DHT22;69937;52.420;10.538;2023-12-29T01:13:12;9.00;64.60
80577;DHT22;69937;52.420;10.538;2023-12-29T01:18:13;9.00;64.70
80577;DHT22;69937;52.420;10.538;2023-12-29T01:23:13;9.00;64.80
80577;DHT22;69937;52.420;10.538;2023-12-29T01:28:14;9.00;64.80
80577;DHT22;69937;52.420;10.538;2023-12-29T01:33:14;9.00;64.90
80577;DHT22;69937;52.420;10.538;2023-12-29T01:38:15;9.00;65.10
80577;DHT22;69937;52.420;10.538;2023-12-29T01:43:15;9.00;65.60
80577;DHT22;69937;52.420;10.538;2023-12-29T01:48:16;9.00;65.80
80577;DHT22;69937;52.420;10.538;2023-12-29T01:53:17;8.90;66.00
80577;DHT22;69937;52.420;10.538;2023-12-29T01:58:17;8.80;66.90
80577;DHT22;69937;52.420;10.538;2023-12-29T02:03:18;8.70;68.40
80577;DHT22;69937;52.420;10.538;2023-12-29T02:08:19;8.60;67.90
80577;DHT22;69937;52.420;10.538;2023-12-29T02:13:19;8.50;67.80
80577;DHT22;69937;52.420;10.538;2023-12-29T02:18:22;8.50;68.10
80577;DHT22;69937;52.420;10.538;2023-12-29T02:23:24;8.60;67.70
80577;DHT22;69937;52.420;10.538;2023-12-29T02:28:26;8.60;67.60
80577;DHT22;69937;52.420;10.538;2023-12-29T02:33:28;8.60;67.20
80577;DHT22;69937;52.420;10.538;2023-12-29T02:38:32;8.60;68.50
80577;DHT22;69937;52.420;10.538;2023-12-29T02:43:33;8.60;68.60
80577;DHT22;69937;52.420;10.538;2023-12-29T02:48:33;8.50;68.70
80577;DHT22;69937;52.420;10.538;2023-12-29T02:53:34;8.50;68.90
80577;DHT22;69937;52.420;10.538;2023-12-29T02:58:35;8.50;68.50
80577;DHT22;69937;52.420;10.538;2023-12-29T03:03:35;8.60;68.50
80577;DHT22;69937;52.420;10.538;2023-12-29T03:08:36;8.60;68.70
80577;DHT22;69937;52.420;10.538;2023-12-29T03:13:36;8.60;68.20
80577;DHT22;69937;52.420;10.538;2023-12-29T03:18:37;8.70;68.10
80577;DHT22;69937;52.420;10.538;2023-12-29T03:23:40;8.80;68.00
80577;DHT22;69937;52.420;10.538;2023-12-29T03:28:40;8.80;67.90
80577;DHT22;69937;52.420;10.538;2023-12-29T03:33:41;8.80;68.00
80577;DHT22;69937;52.420;10.538;2023-12-29T03:38:41;8.80;68.10
80577;DHT22;69937;52.420;10.538;2023-12-29T03:43:42;8.80;68.90
80577;DHT22;69937;52.420;10.538;2023-12-29T03:48:43;8.70;70.60
80577;DHT22;69937;52.420;10.538;2023-12-29T03:53:43;8.60;71.40
80577;DHT22;69937;52.420;10.538;2023-12-29T03:58:44;8.60;70.30
80577;DHT22;69937;52.420;10.538;2023-12-29T04:03:45;8.60;69.70
80577;DHT22;69937;52.420;10.538;2023-12-29T04:08:46;8.70;69.40
80577;DHT22;69937;52.420;10.538;2023-12-29T04:13:46;8.80;68.90
80577;DHT22;69937;52.420;10.538;2023-12-29T04:18:47;8.90;68.60
80577;DHT22;69937;52.420;10.538;2023-12-29T04:23:47;8.90;68.70
80577;DHT22;69937;52.420;10.538;2023-12-29T04:28:48;8.90;69.00
80577;DHT22;69937;52.420;10.538;2023-12-29T04:33:48;8.90;70.10
80577;DHT22;69937;52.420;10.538;2023-12-29T04:38:49;8.80;70.40
80577;DHT22;69937;52.420;10.538;2023-12-29T04:43:49;8.80;70.90
80577;DHT22;69937;52.420;10.538;2023-12-29T04:48:51;8.80;71.00
80577;DHT22;69937;52.420;10.538;2023-12-29T04:53:51;8.80;71.00
80577;DHT22;69937;52.420;10.538;2023-12-29T04:58:52;8.90;71.20
80577;DHT22;69937;52.420;10.538;2023-12-29T05:03:53;8.90;71.20
80577;DHT22;69937;52.420;10.538;2023-12-29T05:08:53;8.80;71.60
80577;DHT22;69937;52.420;10.538;2023-12-29T05:13:54;8.70;72.10
80577;DHT22;69937;52.420;10.538;2023-12-29T05:18:54;8.60;72.50
80577;DHT22;69937;52.420;10.538;2023-12-29T05:23:55;8.60;72.40
80577;DHT22;69937;52.420;10.538;2023-12-29T05:28:55;8.60;72.50
80577;DHT22;69937;52.420;10.538;2023-12-29T05:33:56;8.60;72.40
80577;DHT22;69937;52.420;10.538;2023-12-29T05:38:56;8.60;73.80
80577;DHT22;69937;52.420;10.538;2023-12-29T05:43:57;8.40;74.30
80577;DHT22;69937;52.420;10.538;2023-12-29T05:48:58;8.40;74.30
80577;DHT22;69937;52.420;10.538;2023-12-29T05:53:59;8.40;74.60
80577;DHT22;69937;52.420;10.538;2023-12-29T05:58:59;8.40;74.70
80577;DHT22;69937;52.420;10.538;2023-12-29T06:04:00;8.30;75.90
80577;DHT22;69937;52.420;10.538;2023-12-29T06:09:01;8.30;76.00
80577;DHT22;69937;52.420;10.538;2023-12-29T06:14:01;8.30;76.00
80577;DHT22;69937;52.420;10.538;2023-12-29T06:19:02;8.30;75.70
80577;DHT22;69937;52.420;10.538;2023-12-29T06:24:02;8.30;75.80
80577;DHT22;69937;52.420;10.538;2023-12-29T06:29:03;8.30;76.10
80577;DHT22;69937;52.420;10.538;2023-12-29T06:34:03;8.30;76.30
80577;DHT22;69937;52.420;10.538;2023-12-29T06:39:04;8.30;76.30
80577;DHT22;69937;52.420;10.538;2023-12-29T06:44:05;8.30;76.40
80577;DHT22;69937;52.420;10.538;2023-12-29T06:49:08;8.30;76.50
80577;DHT22;69937;52.420;10.538;2023-12-29T06:54:09;8.30;76.60
80577;DHT22;69937;52.420;10.538;2023-12-29T06:59:10;8.30;77.20
80577;DHT22;69937;52.420;10.538;2023-12-29T07:04:10;8.30;78.00
80577;DHT22;69937;52.420;10.538;2023-12-29T07:09:11;8.20;79.00
80577;DHT22;69937;52.420;10.538;2023-12-29T07:14:12;8.20;79.50
80577;DHT22;69937;52.420;10.538;2023-12-29T07:19:12;8.20;79.80
80577;DHT22;69937;52.420;10.538;2023-12-29T07:24:13;8.10;79.90
80577;DHT22;69937;52.420;10.538;2023-12-29T07:29:13;8.10;79.70
80577;DHT22;69937;52.420;10.538;2023-12-29T07:34:14;8.10;79.80
80577;DHT22;69937;52.420;10.538;2023-12-29T07:39:14;8.20;78.50
80577;DHT22;69937;52.420;10.538;2023-12-29T07:44:15;8.40;76.90
80577;DHT22;69937;52.420;10.538;2023-12-29T07:49:16;8.60;74.80
80577;DHT22;69937;52.420;10.538;2023-12-29T07:54:16;8.90;73.50
80577;DHT22;69937;52.420;10.538;2023-12-29T07:59:17;9.10;72.00
80577;DHT22;69937;52.420;10.538;2023-12-29T08:04:17;9.20;71.00
80577;DHT22;69937;52.420;10.538;2023-12-29T08:09:18;9.40;69.90
80577;DHT22;69937;52.420;10.538;2023-12-29T08:14:20;9.50;69.50
80577;DHT22;69937;52.420;10.538;2023-12-29T08:19:20;9.60;68.50
80577;DHT22;69937;52.420;10.538;2023-12-29T08:24:21;9.70;68.00
80577;DHT22;69937;52.420;10.538;2023-12-29T08:29:21;9.80;67.20
80577;DHT22;69937;52.420;10.538;2023-12-29T08:34:22;9.90;66.70
80577;DHT22;69937;52.420;10.538;2023-12-29T08:39:23;10.00;66.50
80577;DHT22;69937;52.420;10.538;2023-12-29T08:44:23;10.00;66.70
80577;DHT22;69937;52.420;10.538;2023-12-29T08:49:24;10.00;66.30
80577;DHT22;69937;52.420;10.538;2023-12-29T08:54:25;10.10;65.80
80577;DHT22;69937;52.420;10.538;2023-12-29T08:59:25;10.10;65.50
80577;DHT22;69937;52.420;10.538;2023-12-29T09:04:26;10.20;65.10
80577;DHT22;69937;52.420;10.538;2023-12-29T09:09:26;10.30;64.50
80577;DHT22;69937;52.420;10.538;2023-12-29T09:14:27;10.30;64.50
80577;DHT22;69937;52.420;10.538;2023-12-29T09:19:30;10.40;64.10
80577;DHT22;69937;52.420;10.538;2023-12-29T09:24:30;10.50;63.70
80577;DHT22;69937;52.420;10.538;2023-12-29T09:29:31;10.60;63.30
80577;DHT22;69937;52.420;10.538;2023-12-29T09:34:31;10.60;63.00
80577;DHT22;69937;52.420;10.538;2023-12-29T09:39:32;10.60;62.90
80577;DHT22;69937;52.420;10.538;2023-12-29T09:44:35;10.70;62.50
80577;DHT22;69937;52.420;10.538;2023-12-29T09:49:40;10.80;62.10
80577;DHT22;69937;52.420;10.538;2023-12-29T09:54:41;10.80;62.50
80577;DHT22;69937;52.420;10.538;2023-12-29T09:59:43;10.70;62.70
80577;DHT22;69937;52.420;10.538;2023-12-29T10:04:44;10.70;62.70
80577;DHT22;69937;52.420;10.538;2023-12-29T10:09:47;10.60;62.50
80577;DHT22;69937;52.420;10.538;2023-12-29T10:25:31;10.30;65.60
80577;DHT22;69937;52.420;10.538;2023-12-29T10:30:32;10.00;67.90
80577;DHT22;69937;52.420;10.538;2023-12-29T10:35:35;9.70;69.40
80577;DHT22;69937;52.420;10.538;2023-12-29T10:40:38;9.40;71.80
80577;DHT22;69937;52.420;10.538;2023-12-29T10:45:38;9.00;73.80
80577;DHT22;69937;52.420;10.538;2023-12-29T10:50:43;8.80;75.70
80577;DHT22;69937;52.420;10.538;2023-12-29T10:55:45;8.60;76.30
80577;DHT22;69937;52.420;10.538;2023-12-29T11:00:45;8.40;77.10
80577;DHT22;69937;52.420;10.538;2023-12-29T11:05:46;8.40;77.70
80577;DHT22;69937;52.420;10.538;2023-12-29T11:10:50;8.30;78.10
80577;DHT22;69937;52.420;10.538;2023-12-29T11:15:52;8.20;78.30
80577;DHT22;69937;52.420;10.538;2023-12-29T11:20:53;8.20;79.10
80577;DHT22;69937;52.420;10.538;2023-12-29T11:25:57;8.10;79.50
80577;DHT22;69937;52.420;10.538;2023-12-29T11:30:59;8.10;79.70
80577;DHT22;69937;52.420;10.538;2023-12-29T11:36:12;8.10;80.30
80577;DHT22;69937;52.420;10.538;2023-12-29T11:41:20;8.00;80.50
80577;DHT22;69937;52.420;10.538;2023-12-29T11:51:43;8.20;80.00
80577;DHT22;69937;52.420;10.538;2023-12-29T11:56:44;8.30;79.50
80577;DHT22;69937;52.420;10.538;2023-12-29T12:01:47;8.40;79.20
80577;DHT22;69937;52.420;10.538;2023-12-29T12:06:48;8.50;78.50
80577;DHT22;69937;52.420;10.538;2023-12-29T12:11:49;8.60;77.80
80577;DHT22;69937;52.420;10.538;2023-12-29T12:16:50;8.80;77.00
80577;DHT22;69937;52.420;10.538;2023-12-29T12:21:53;8.90;76.20
80577;DHT22;69937;52.420;10.538;2023-12-29T12:26:55;9.00;75.00
80577;DHT22;69937;52.420;10.538;2023-12-29T12:31:56;9.20;74.30
80577;DHT22;69937;52.420;10.538;2023-12-29T12:36:57;9.20;73.70
80577;DHT22;69937;52.420;10.538;2023-12-29T12:42:00;9.40;72.60
80577;DHT22;69937;52.420;10.538;2023-12-29T12:47:06;9.50;72.50
80577;DHT22;69937;52.420;10.538;2023-12-29T12:52:09;9.60;71.90
80577;DHT22;69937;52.420;10.538;2023-12-29T12:57:10;9.60;71.40
80577;DHT22;69937;52.420;10.538;2023-12-29T13:02:10;9.70;70.80
80577;DHT22;69937;52.420;10.538;2023-12-29T13:07:15;9.80;70.80
80577;DHT22;69937;52.420;10.538;2023-12-29T13:12:16;9.70;72.00
80577;DHT22;69937;52.420;10.538;2023-12-29T13:17:17;9.60;72.90
80577;DHT22;69937;52.420;10.538;2023-12-29T13:22:18;9.40;74.10
80577;DHT22;69937;52.420;10.538;2023-12-29T13:27:19;9.40;74.20
80577;DHT22;69937;52.420;10.538;2023-12-29T13:32:22;9.50;73.40
80577;DHT22;69937;52.420;10.538;2023-12-29T13:37:37;9.60;72.70
80577;DHT22;69937;52.420;10.538;2023-12-29T13:42:44;9.60;72.20
80577;DHT22;69937;52.420;10.538;2023-12-29T13:47:46;9.70;72.00
80577;DHT22;69937;52.420;10.538;2023-12-29T13:52:47;9.80;71.20
80577;DHT22;69937;52.420;10.538;2023-12-29T13:57:47;9.80;71.40
80577;DHT22;69937;52.420;10.538;2023-12-29T14:13:08;9.80;70.90
80577;DHT22;69937;52.420;10.538;2023-12-29T14:23:13;9.90;70.00
80577;DHT22;69937;52.420;10.538;2023-12-29T14:28:20;10.00;69.90
80577;DHT22;69937;52.420;10.538;2023-12-29T14:33:24;10.00;69.00
80577;DHT22;69937;52.420;10.538;2023-12-29T14:38:24;10.00;69.20
80577;DHT22;69937;52.420;10.538;2023-12-29T14:43:25;10.00;69.30
80577;DHT22;69937;52.420;10.538;2023-12-29T14:48:25;10.00;68.90
80577;DHT22;69937;52.420;10.538;2023-12-29T14:53:26;10.00;68.50
80577;DHT22;69937;52.420;10.538;2023-12-29T14:58:27;10.00;68.60
80577;DHT22;69937;52.420;10.538;2023-12-29T15:03:27;10.10;67.60
80577;DHT22;69937;52.420;10.538;2023-12-29T15:08:28;10.10;67.60
80577;DHT22;69937;52.420;10.538;2023-12-29T15:13:34;10.10;67.60
80577;DHT22;69937;52.420;10.538;2023-12-29T15:18:35;10.10;67.30
80577;DHT22;69937;52.420;10.538;2023-12-29T15:23:36;10.20;67.20
80577;DHT22;69937;52.420;10.538;2023-12-29T15:28:37;10.20;67.00
80577;DHT22;69937;52.420;10.538;2023-12-29T15:33:37;10.30;66.30
80577;DHT22;69937;52.420;10.538;2023-12-29T15:38:38;10.30;66.40
80577;DHT22;69937;52.420;10.538;2023-12-29T15:43:38;10.30;66.60
80577;DHT22;69937;52.420;10.538;2023-12-29T15:48:39;10.30;66.90
80577;DHT22;69937;52.420;10.538;2023-12-29T15:53:40;10.20;66.90
80577;DHT22;69937;52.420;10.538;2023-12-29T15:58:40;10.20;66.80
80577;DHT22;69937;52.420;10.538;2023-12-29T16:03:41;10.10;66.80
80577;DHT22;69937;52.420;10.538;2023-12-29T16:08:41;10.10;66.90
80577;DHT22;69937;52.420;10.538;2023-12-29T16:13:42;10.10;67.10
80577;DHT22;69937;52.420;10.538;2023-12-29T16:18:43;10.00;67.10
80577;DHT22;69937;52.420;10.538;2023-12-29T16:23:44;10.00;67.30
80577;DHT22;69937;52.420;10.538;2023-12-29T16:28:45;10.00;67.30
80577;DHT22;69937;52.420;10.538;2023-12-29T16:33:46;10.00;67.40
80577;DHT22;69937;52.420;10.538;2023-12-29T16:38:49;10.00;67.20
80577;DHT22;69937;52.420;10.538;2023-12-29T16:43:50;10.00;67.40
80577;DHT22;69937;52.420;10.538;2023-12-29T16:48:50;10.00;67.60
80577;DHT22;69937;52.420;10.538;2023-12-29T16:53:51;10.00;67.90
80577;DHT22;69937;52.420;10.538;2023-12-29T16:58:51;10.00;67.70
80577;DHT22;69937;52.420;10.538;2023-12-29T17:03:52;10.00;68.00
80577;DHT22;69937;52.420;10.538;2023-12-29T17:08:53;9.90;68.00
80577;DHT22;69937;52.420;10.538;2023-12-29T17:13:53;9.90;68.10
80577;DHT22;69937;52.420;10.538;2023-12-29T17:18:53;9.80;68.50
80577;DHT22;69937;52.420;10.538;2023-12-29T17:23:54;9.70;69.60
80577;DHT22;69937;52.420;10.538;2023-12-29T17:28:54;9.50;71.50
80577;DHT22;69937;52.420;10.538;2023-12-29T17:33:55;9.20;72.90
80577;DHT22;69937;52.420;10.538;2023-12-29T17:38:55;9.10;73.70
80577;DHT22;69937;52.420;10.538;2023-12-29T17:43:57;9.00;73.80
80577;DHT22;69937;52.420;10.538;2023-12-29T17:48:57;8.90;74.30
80577;DHT22;69937;52.420;10.538;2023-12-29T17:53:58;8.80;74.20
80577;DHT22;69937;52.420;10.538;2023-12-29T17:58:59;8.80;74.20
80577;DHT22;69937;52.420;10.538;2023-12-29T18:04:00;8.70;75.30
80577;DHT22;69937;52.420;10.538;2023-12-29T18:09:00;8.50;76.40
80577;DHT22;69937;52.420;10.538;2023-12-29T18:14:01;8.40;76.80
80577;DHT22;69937;52.420;10.538;2023-12-29T18:19:02;8.40;76.80
80577;DHT22;69937;52.420;10.538;2023-12-29T18:24:02;8.30;77.10
80577;DHT22;69937;52.420;10.538;2023-12-29T18:29:03;8.30;77.50
80577;DHT22;69937;52.420;10.538;2023-12-29T18:34:04;8.20;78.00
80577;DHT22;69937;52.420;10.538;2023-12-29T18:39:04;8.10;78.10
80577;DHT22;69937;52.420;10.538;2023-12-29T18:44:05;8.10;78.40
80577;DHT22;69937;52.420;10.538;2023-12-29T18:49:05;8.00;79.00
80577;DHT22;69937;52.420;10.538;2023-12-29T18:54:08;8.00;79.40
80577;DHT22;69937;52.420;10.538;2023-12-29T18:59:10;7.90;79.80
80577;DHT22;69937;52.420;10.538;2023-12-29T19:04:13;7.80;80.00
80577;DHT22;69937;52.420;10.538;2023-12-29T19:09:14;7.80;80.30
80577;DHT22;69937;52.420;10.538;2023-12-29T19:14:15;7.80;80.70
80577;DHT22;69937;52.420;10.538;2023-12-29T19:19:16;7.70;81.10
80577;DHT22;69937;52.420;10.538;2023-12-29T19:24:17;7.60;81.40
80577;DHT22;69937;52.420;10.538;2023-12-29T19:29:18;7.60;81.80
80577;DHT22;69937;52.420;10.538;2023-12-29T19:34:18;7.60;82.20
80577;DHT22;69937;52.420;10.538;2023-12-29T19:39:20;7.60;82.30
80577;DHT22;69937;52.420;10.538;2023-12-29T19:44:21;7.70;82.20
80577;DHT22;69937;52.420;10.538;2023-12-29T19:49:21;7.70;82.10
80577;DHT22;69937;52.420;10.538;2023-12-29T19:54:22;7.70;82.00
80577;DHT22;69937;52.420;10.538;2023-12-29T19:59:23;7.80;81.80
80577;DHT22;69937;52.420;10.538;2023-12-29T20:04:23;7.80;81.70
80577;DHT22;69937;52.420;10.538;2023-12-29T20:09:24;7.80;81.70
80577;DHT22;69937;52.420;10.538;2023-12-29T20:14:24;7.80;81.90
80577;DHT22;69937;52.420;10.538;2023-12-29T20:19:25;7.80;82.00
80577;DHT22;69937;52.420;10.538;2023-12-29T20:24:25;7.80;82.00
80577;DHT22;69937;52.420;10.538;2023-12-29T20:29:26;7.90;82.00
80577;DHT22;69937;52.420;10.538;2023-12-29T20:34:26;8.00;82.00
80577;DHT22;69937;52.420;10.538;2023-12-29T20:39:27;8.00;81.90
80577;DHT22;69937;52.420;10.538;2023-12-29T20:44:27;8.00;82.00
80577;DHT22;69937;52.420;10.538;2023-12-29T20:49:28;8.00;82.10
80577;DHT22;69937;52.420;10.538;2023-12-29T20:54:29;8.00;82.10
80577;DHT22;69937;52.420;10.538;2023-12-29T20:59:32;8.00;82.10
80577;DHT22;69937;52.420;10.538;2023-12-29T21:04:36;8.00;82.30
80577;DHT22;69937;52.420;10.538;2023-12-29T21:09:36;8.00;82.90
80577;DHT22;69937;52.420;10.538;2023-12-29T21:14:37;7.80;80.40
80577;DHT22;69937;52.420;10.538;2023-12-29T21:19:38;7.50;80.70
80577;DHT22;69937;52.420;10.538;2023-12-29T21:24:39;7.20;79.30
80577;DHT22;69937;52.420;10.538;2023-12-29T21:29:39;7.20;79.90
80577;DHT22;69937;52.420;10.538;2023-12-29T21:34:41;7.20;80.90
80577;DHT22;69937;52.420;10.538;2023-12-29T21:39:42;7.20;81.90
80577;DHT22;69937;52.420;10.538;2023-12-29T21:44:44;7.10;81.30
80577;DHT22;69937;52.420;10.538;2023-12-29T21:49:44;7.00;80.00
80577;DHT22;69937;52.420;10.538;2023-12-29T21:54:45;6.80;79.10
80577;DHT22;69937;52.420;10.538;2023-12-29T21:59:46;6.80;79.50
80577;DHT22;69937;52.420;10.538;2023-12-29T22:04:46;6.70;79.80
80577;DHT22;69937;52.420;10.538;2023-12-29T22:09:47;6.60;79.80
80577;DHT22;69937;52.420;10.538;2023-12-29T22:14:47;6.50;80.00
80577;DHT22;69937;52.420;10.538;2023-12-29T22:19:48;6.60;80.10
80577;DHT22;69937;52.420;10.538;2023-12-29T22:24:49;6.50;80.40
80577;DHT22;69937;52.420;10.538;2023-12-29T22:29:50;6.50;80.40
80577;DHT22;69937;52.420;10.538;2023-12-29T22:34:50;6.60;80.20
80577;DHT22;69937;52.420;10.538;2023-12-29T22:39:51;6.60;80.20
80577;DHT22;69937;52.420;10.538;2023-12-29T22:44:51;6.70;80.20
80577;DHT22;69937;52.420;10.538;2023-12-29T22:49:52;6.70;80.30
80577;DHT22;69937;52.420;10.538;2023-12-29T22:54:52;6.70;80.20
80577;DHT22;69937;52.420;10.538;2023-12-29T22:59:53;6.70;80.30
80577;DHT22;69937;52.420;10.538;2023-12-29T23:04:53;6.70;80.40
80577;DHT22;69937;52.420;10.538;2023-12-29T23:09:54;6.60;80.70
80577;DHT22;69937;52.420;10.538;2023-12-29T23:14:55;6.60;81.00
80577;DHT22;69937;52.420;10.538;2023-12-29T23:19:55;6.60;81.10
80577;DHT22;69937;52.420;10.538;2023-12-29T23:24:56;6.60;80.50
80577;DHT22;69937;52.420;10.538;2023-12-29T23:29:56;6.60;80.50
80577;DHT22;69937;52.420;10.538;2023-12-29T23:34:57;6.60;80.00
80577;DHT22;69937;52.420;10.538;2023-12-29T23:39:58;6.70;79.40
80577;DHT22;69937;52.420;10.538;2023-12-29T23:44:59;6.80;78.10
80577;DHT22;69937;52.420;10.538;2023-12-29T23:49:59;6.80;77.70
80577;DHT22;69937;52.420;10.538;2023-12-29T23:55:00;6.90;77.50
